Aérodrome :
LOGIN :

S'inscrire | Disclaimer

   EN    FR    IT 

 










Légende :    VFR   VFR Marginal   IFR   IFR Intensif   IFR Très Intensif
Visi : 
Plafond : 
>= 8 km
>= 3000ft
5 à 8 km
1000 à 3000 ft
1500m à 5 km
500 à 1000 ft
800 à 1500m
200 à 500 ft
< 800m
< 200 ft
Symboles :   Orages  Brouillard  Fortes neiges  Fortes précipitations  Vent > 20 kt
SIGMETs :   Divers  Orages  Givrage  Turbulence  Onde Orograph.  Cendres Volcan.






- Altitude de l'aérodrome : 80 ft
- Code IATA : LPL


EGGP - Liverpool John Lennon

DERNIER METAR :
  • 251650Z 15006KT 9999 SCT014 OVC032 08/07 Q1013

METARs EXPIRÉS :
  • 251620Z 16007KT 9999 FEW012 OVC032 07/06 Q1013
  • 251550Z 17008KT 9999 FEW012 OVC032 07/05 Q1014
  • 251520Z 16008KT 9999 OVC032 07/05 Q1014
  • 251450Z 17009KT 9999 OVC032 07/05 Q1014
  • 251420Z 16008KT 9999 OVC030 07/05 Q1014

TAF TAF EGGP
Valide du 25 à 12h jusqu'au 26 à 12h UTC


251056Z 2512/2612 20006KT 9999 OVC025
BECMG 2518/2521 6000 BKN010
TEMPO 2518/2524 3000 -DZ BR BKN006
PROB30
TEMPO 2520/2524 1200 DZ BKN004
BECMG 2600/2603 SCT025
BECMG 2603/2606 9999
TEMPO 2609/2612 7000 RA BKN012
BECMG 2610/2612 26010KT
ATIS : +44 151 907 2000 (option 5 or ext 5150)
Météo : +44 871 750 5150



MET'MAP, la Météo Aéronautique d'un coup d'oeil ! - Copyright ORBIFLY Décembre 2007 - Disclaimer

ORBIFLY MET'MAP TEAM :

Programmation & Développement : Alexandra Zaïnal
Sur une idée originale de : Baudouin d'Aumeries
Assistance à la programmation : Marc-Olivier Méhu
Soutien technique & logistique : Manuel Goepfert

Contact : metmap@orbifly.com




SOURCES & CREDITS :

   NOAA